createdAt,value
2019-04-05T00:02:07.396Z,10.20
2019-04-05T00:04:36.440Z,10.23
2019-04-05T00:07:05.431Z,10.28
2019-04-05T00:09:34.681Z,9.83
2019-04-05T00:12:03.985Z,10.13
2019-04-05T00:14:33.283Z,10.00
2019-04-05T00:17:02.582Z,10.05
2019-04-05T00:19:31.884Z,9.55
2019-04-05T00:22:01.187Z,10.18
2019-04-05T00:24:30.484Z,10.25
2019-04-05T00:26:59.784Z,10.98
2019-04-05T00:29:29.093Z,10.95
2019-04-05T00:31:58.385Z,10.18
2019-04-05T00:34:27.687Z,9.58
2019-04-05T00:36:56.986Z,9.65
2019-04-05T00:39:26.336Z,9.83
2019-04-05T00:42:02.511Z,9.70
2019-04-05T00:44:30.733Z,10.45
2019-04-05T00:47:00.024Z,10.15
2019-04-05T00:49:29.325Z,9.75
2019-04-05T00:51:58.625Z,10.13
2019-04-05T00:54:27.926Z,10.65
2019-04-05T00:56:57.045Z,10.38
2019-04-05T00:59:26.219Z,10.45
2019-04-05T01:01:55.519Z,9.73
2019-04-05T01:04:24.822Z,9.53
2019-04-05T01:06:54.123Z,10.08
2019-04-05T01:09:23.422Z,10.10
2019-04-05T01:11:53.029Z,10.05
2019-04-05T01:14:22.637Z,10.32
2019-04-05T01:16:51.938Z,9.40
2019-04-05T01:19:30.411Z,9.83
2019-04-05T01:22:02.519Z,10.32
2019-04-05T01:24:31.874Z,10.18
2019-04-05T01:27:01.432Z,11.33
2019-04-05T01:29:30.727Z,10.53
2019-04-05T01:32:00.029Z,9.73
2019-04-05T01:34:29.330Z,10.23
2019-04-05T01:36:58.960Z,10.50
2019-04-05T01:39:28.256Z,10.40
2019-04-05T01:41:57.849Z,10.00
2019-04-05T01:44:27.758Z,10.00
2019-04-05T01:46:57.059Z,10.87
2019-04-05T01:49:26.360Z,10.10
2019-04-05T01:51:55.660Z,10.08
2019-04-05T01:54:24.960Z,10.28
2019-04-05T01:56:54.039Z,10.32
2019-04-05T01:59:23.255Z,10.03
2019-04-05T02:01:52.553Z,10.60
2019-04-05T02:04:21.854Z,9.38
2019-04-05T02:06:50.934Z,10.05
2019-04-05T02:09:20.148Z,9.88
2019-04-05T02:11:49.755Z,9.55
2019-04-05T02:14:18.748Z,9.78
2019-04-05T02:16:48.663Z,10.20
2019-04-05T02:19:17.964Z,9.77
2019-04-05T02:21:47.266Z,9.80
2019-04-05T02:24:16.564Z,10.15
2019-04-05T02:26:45.865Z,10.25
2019-04-05T02:29:15.169Z,10.38
2019-04-05T02:31:44.774Z,10.00
2019-04-05T02:34:14.077Z,10.45
2019-04-05T02:36:44.303Z,9.83
2019-04-05T02:39:13.598Z,10.32
2019-04-05T02:41:43.208Z,10.03
2019-04-05T02:44:14.658Z,9.80
2019-04-05T02:46:46.443Z,9.98
2019-04-05T02:49:16.946Z,10.18
2019-04-05T02:51:49.348Z,10.40
2019-04-05T02:54:19.846Z,9.65
2019-04-05T02:56:50.685Z,10.25
2019-04-05T03:01:48.668Z,9.85
2019-04-05T03:04:17.967Z,9.95
2019-04-05T03:06:49.426Z,10.72
2019-04-05T03:09:19.950Z,10.45
2019-04-05T03:11:50.478Z,9.75
2019-04-05T03:14:21.619Z,10.95
2019-04-05T03:16:53.701Z,9.90
2019-04-05T03:19:25.769Z,9.55
2019-04-05T03:21:57.819Z,9.98
2019-04-05T03:24:30.220Z,9.20
2019-04-05T03:27:02.552Z,10.43
2019-04-05T03:29:33.091Z,9.70
2019-04-05T03:32:04.371Z,9.88
2019-04-05T03:34:34.457Z,10.08
2019-04-05T03:37:04.372Z,9.98
2019-04-05T03:39:34.899Z,11.25
2019-04-05T03:42:04.816Z,10.53
2019-04-05T03:44:34.125Z,10.33
2019-04-05T03:47:04.956Z,10.82
2019-04-05T03:49:34.869Z,10.48
2019-04-05T03:52:06.029Z,11.03
2019-04-05T03:54:35.927Z,10.28
2019-04-05T03:57:05.532Z,10.33
2019-04-05T03:59:34.832Z,9.98
2019-04-05T04:02:05.057Z,9.30
2019-04-05T04:04:34.676Z,9.83
2019-04-05T04:07:04.587Z,10.88
2019-04-05T04:09:34.186Z,10.82
2019-04-05T04:12:04.100Z,11.08
2019-04-05T04:14:33.707Z,10.30
2019-04-05T04:17:12.222Z,10.88
2019-04-05T04:19:34.460Z,10.23
2019-04-05T04:22:24.655Z,10.40
2019-04-05T04:24:55.179Z,11.00
2019-04-05T04:27:25.401Z,10.38
2019-04-05T04:29:55.316Z,10.60
2019-04-05T04:32:26.153Z,10.53
2019-04-05T04:37:27.216Z,10.78
2019-04-05T04:39:55.895Z,11.03
2019-04-05T04:42:26.713Z,10.43
2019-04-05T04:47:26.747Z,9.93
2019-04-05T04:49:57.403Z,10.05
2019-04-05T04:52:29.979Z,11.65
2019-04-05T04:54:59.071Z,10.38
2019-04-05T04:57:28.987Z,10.80
2019-04-05T04:59:58.435Z,10.70
2019-04-05T05:02:27.894Z,10.90
2019-04-05T05:04:57.198Z,10.90
2019-04-05T05:07:26.482Z,10.13
2019-04-05T05:09:56.106Z,11.30
2019-04-05T05:12:26.017Z,10.90
2019-04-05T05:14:55.661Z,11.27
2019-04-05T05:17:37.507Z,10.55
2019-04-05T05:19:55.763Z,10.85
2019-04-05T05:22:25.370Z,10.48
2019-04-05T05:24:55.286Z,11.38
2019-04-05T05:27:24.584Z,10.50
2019-04-05T05:29:54.500Z,11.40
2019-04-05T05:32:24.108Z,12.10
2019-04-05T05:35:01.871Z,11.35
2019-04-05T05:37:24.858Z,10.88
2019-04-05T05:39:54.158Z,11.18
2019-04-05T05:42:23.464Z,10.60
2019-04-05T05:44:52.499Z,10.45
2019-04-05T05:47:21.754Z,10.75
2019-04-05T05:49:51.054Z,10.53
2019-04-05T05:52:21.430Z,10.70
2019-04-05T05:54:50.576Z,10.63
2019-04-05T05:57:19.618Z,10.05
2019-04-05T05:59:48.886Z,11.00
2019-04-05T06:02:18.171Z,11.08
2019-04-05T06:04:47.471Z,10.90
2019-04-05T06:07:19.939Z,10.32
2019-04-05T06:09:47.789Z,10.45
2019-04-05T06:12:19.756Z,10.72
2019-04-05T06:14:52.037Z,11.78
2019-04-05T06:17:21.040Z,11.80
2019-04-05T06:19:51.669Z,10.68
2019-04-05T06:22:20.867Z,11.48
2019-04-05T06:24:50.244Z,11.35
2019-04-05T06:27:19.469Z,11.43
2019-04-05T06:29:48.769Z,12.33
2019-04-05T06:32:18.069Z,11.60
2019-04-05T06:34:47.370Z,11.73
2019-04-05T06:37:19.743Z,12.50
2019-04-05T06:39:49.043Z,12.40
2019-04-05T06:42:18.345Z,11.73
2019-04-05T06:44:47.644Z,12.68
2019-04-05T06:47:16.950Z,12.53
2019-04-05T06:49:46.245Z,12.20
2019-04-05T06:52:15.556Z,12.55
2019-04-05T06:54:44.845Z,13.10
2019-04-05T06:57:14.146Z,12.07
2019-04-05T06:59:43.451Z,12.58
2019-04-05T07:02:12.746Z,12.82
2019-04-05T07:04:42.049Z,14.07
2019-04-05T07:07:11.350Z,14.68
2019-04-05T07:09:40.650Z,16.95
2019-04-05T07:12:09.950Z,15.85
2019-04-05T07:14:39.248Z,15.10
2019-04-05T07:17:08.554Z,14.43
2019-04-05T07:19:37.849Z,16.02
2019-04-05T07:22:07.150Z,15.75
2019-04-05T07:24:36.451Z,14.70
2019-04-05T07:27:05.750Z,12.68
2019-04-05T07:29:35.053Z,12.13
2019-04-05T07:32:04.352Z,12.20
2019-04-05T07:34:33.653Z,11.53
2019-04-05T07:37:02.952Z,12.63
2019-04-05T07:39:32.252Z,11.88
2019-04-05T07:42:01.554Z,12.40
2019-04-05T07:44:30.854Z,12.80
2019-04-05T07:47:00.153Z,13.48
2019-04-05T07:49:29.455Z,12.78
2019-04-05T07:51:58.755Z,12.43
2019-04-05T07:54:28.055Z,12.78
2019-04-05T07:56:57.356Z,13.32
2019-04-05T07:59:26.660Z,12.70
2019-04-05T08:01:55.956Z,13.13
2019-04-05T08:04:25.290Z,12.90
2019-04-05T08:06:56.709Z,11.83
2019-04-05T08:09:27.237Z,11.75
2019-04-05T08:11:56.844Z,10.98
2019-04-05T08:14:27.374Z,11.30
2019-04-05T08:16:56.677Z,11.35
2019-04-05T08:19:25.670Z,10.58
2019-04-05T08:21:54.970Z,10.40
2019-04-05T08:24:24.269Z,11.08
2019-04-05T08:26:53.569Z,10.55
2019-04-05T08:29:22.872Z,10.03
2019-04-05T08:31:52.171Z,10.18
2019-04-05T08:34:21.470Z,9.80
2019-04-05T08:36:52.619Z,10.20
2019-04-05T08:39:21.919Z,10.48
2019-04-05T08:41:51.216Z,10.72
2019-04-05T08:44:20.518Z,11.03
2019-04-05T08:46:49.817Z,9.85
2019-04-05T08:49:19.118Z,9.55
2019-04-05T08:51:48.418Z,8.90
2019-04-05T08:54:17.718Z,9.28
2019-04-05T08:56:47.023Z,8.05
2019-04-05T08:59:16.321Z,8.90
2019-04-05T09:01:45.621Z,8.70
2019-04-05T09:04:14.920Z,9.28
2019-04-05T09:06:44.222Z,8.30
2019-04-05T09:09:13.519Z,8.25
2019-04-05T09:11:42.819Z,8.55
2019-04-05T09:14:12.120Z,8.73
2019-04-05T09:16:41.432Z,9.23
2019-04-05T09:19:22.741Z,7.60
2019-04-05T09:21:41.255Z,7.62
2019-04-05T09:24:10.344Z,8.03
2019-04-05T09:26:39.544Z,8.43
2019-04-05T09:29:09.443Z,9.10
2019-04-05T09:31:39.065Z,8.93
2019-04-05T09:34:08.367Z,9.53
2019-04-05T09:36:37.668Z,8.88
2019-04-05T09:39:13.830Z,8.25
2019-04-05T09:41:41.538Z,9.05
2019-04-05T09:44:10.586Z,9.00
2019-04-05T09:46:46.947Z,8.85
2019-04-05T09:49:10.313Z,9.38
2019-04-05T09:51:39.614Z,8.68
2019-04-05T09:54:08.914Z,8.23
2019-04-05T09:56:38.214Z,8.80
2019-04-05T09:59:07.516Z,8.88
2019-04-05T10:01:36.815Z,8.88
2019-04-05T10:04:06.117Z,8.88
2019-04-05T10:06:35.416Z,8.53
2019-04-05T10:09:06.560Z,7.50
2019-04-05T10:11:35.860Z,8.55
2019-04-05T10:14:05.471Z,8.78
2019-04-05T10:16:34.768Z,8.35
2019-04-05T10:19:04.068Z,9.08
2019-04-05T10:21:33.368Z,8.05
2019-04-05T10:24:02.670Z,8.75
2019-04-05T10:26:31.970Z,8.43
2019-04-05T10:29:01.065Z,8.55
2019-04-05T10:31:30.263Z,9.08
2019-04-05T10:33:59.564Z,8.30
2019-04-05T10:36:34.481Z,8.20
2019-04-05T10:39:05.212Z,8.35
2019-04-05T10:41:34.538Z,9.18
2019-04-05T10:44:08.753Z,8.10
2019-04-05T10:46:38.354Z,8.38
2019-04-05T10:49:07.658Z,8.45
2019-04-05T10:51:36.955Z,8.05
2019-04-05T10:54:09.173Z,8.33
2019-04-05T10:56:42.314Z,8.63
2019-04-05T10:59:14.932Z,7.47
2019-04-05T11:01:47.366Z,7.62
2019-04-05T11:04:19.433Z,7.90
2019-04-05T11:06:57.169Z,7.37
2019-04-05T11:09:26.328Z,7.47
2019-04-05T11:11:55.634Z,6.78
2019-04-05T11:14:30.150Z,7.53
2019-04-05T11:16:59.460Z,7.80
2019-04-05T11:19:30.224Z,7.90
2019-04-05T11:21:59.281Z,7.15
2019-04-05T11:24:28.581Z,7.25
2019-04-05T11:26:57.887Z,7.28
2019-04-05T11:29:27.182Z,6.90
2019-04-05T11:31:57.694Z,7.58
2019-04-05T11:34:28.241Z,8.20
2019-04-05T11:36:57.541Z,8.48
2019-04-05T11:39:27.457Z,8.05
2019-04-05T11:41:58.599Z,7.72
2019-04-05T11:44:29.134Z,7.28
2019-04-05T11:46:58.738Z,7.42
2019-04-05T11:49:30.584Z,7.33
2019-04-05T11:51:59.795Z,7.90
2019-04-05T11:54:29.097Z,8.28
2019-04-05T11:56:58.400Z,6.87
2019-04-05T11:59:27.698Z,7.37
2019-04-05T12:02:10.823Z,6.78
2019-04-05T12:04:42.633Z,7.05
2019-04-05T12:07:10.655Z,7.78
2019-04-05T12:09:39.953Z,7.03
2019-04-05T12:12:10.025Z,7.40
2019-04-05T12:14:39.167Z,7.40
2019-04-05T12:17:09.691Z,7.62
2019-04-05T12:19:39.305Z,7.20
2019-04-05T12:22:09.264Z,7.85
2019-04-05T12:24:41.590Z,9.63
2019-04-05T12:27:10.891Z,9.43
2019-04-05T12:29:40.194Z,7.33
2019-04-05T12:32:09.498Z,7.53
2019-04-05T12:34:38.791Z,7.67
2019-04-05T12:37:08.093Z,8.00
2019-04-05T12:39:38.930Z,9.03
2019-04-05T12:44:36.609Z,6.62
2019-04-05T12:47:06.215Z,7.58
2019-04-05T12:49:35.518Z,6.53
2019-04-05T12:52:05.124Z,6.90
2019-04-05T12:54:34.424Z,6.47
2019-04-05T12:57:03.727Z,6.80
2019-04-05T12:59:33.026Z,6.35
2019-04-05T13:02:02.338Z,6.22
2019-04-05T13:04:33.163Z,7.35
2019-04-05T13:09:32.234Z,6.45
2019-04-05T13:12:02.243Z,7.15
2019-04-05T13:14:31.593Z,6.40
2019-04-05T13:17:04.282Z,7.50
2019-04-05T13:19:33.572Z,6.10
2019-04-05T13:22:02.873Z,6.72
2019-04-05T13:24:34.026Z,6.45
2019-04-05T13:27:05.495Z,7.00
2019-04-05T13:29:33.846Z,6.90
2019-04-05T13:32:03.153Z,6.87
2019-04-05T13:34:32.090Z,7.90
2019-04-05T13:37:01.939Z,6.80
2019-04-05T13:39:31.662Z,6.60
2019-04-05T13:42:01.806Z,6.90
2019-04-05T13:47:01.714Z,7.08
2019-04-05T13:49:31.020Z,6.67
2019-04-05T13:52:00.316Z,7.10
2019-04-05T13:54:29.618Z,7.65
2019-04-05T13:56:58.930Z,6.60
2019-04-05T13:59:30.673Z,8.23
2019-04-05T14:02:06.066Z,7.25
2019-04-05T14:04:30.506Z,7.37
2019-04-05T14:06:59.784Z,8.00
2019-04-05T14:09:31.572Z,9.88
2019-04-05T14:11:59.636Z,8.03
2019-04-05T14:14:28.935Z,7.30
2019-04-05T14:16:58.239Z,7.25
2019-04-05T14:19:28.767Z,7.75
2019-04-05T14:22:07.820Z,6.90
2019-04-05T14:24:31.665Z,7.95
2019-04-05T14:27:02.835Z,6.72
2019-04-05T14:29:33.272Z,6.92
2019-04-05T14:32:19.457Z,6.42
2019-04-05T14:34:32.861Z,6.87
2019-04-05T14:37:02.162Z,6.80
2019-04-05T14:39:31.461Z,6.40
2019-04-05T14:42:09.745Z,6.85
2019-04-05T14:47:02.128Z,8.65
2019-04-05T14:49:31.427Z,8.95
2019-04-05T14:52:01.173Z,7.08
2019-04-05T14:54:31.564Z,8.50
2019-04-05T14:57:05.549Z,8.00
2019-04-05T14:59:32.817Z,6.95
2019-04-05T15:02:01.924Z,8.00
2019-04-05T15:04:31.226Z,8.00
2019-04-05T15:07:01.357Z,6.90
2019-04-05T15:09:31.056Z,6.67
2019-04-05T15:12:00.356Z,6.28
2019-04-05T15:14:29.654Z,6.58
2019-04-05T15:16:58.733Z,7.53
2019-04-05T15:19:27.949Z,6.75
2019-04-05T15:22:05.728Z,6.62
2019-04-05T15:24:27.777Z,6.47
2019-04-05T15:26:57.082Z,6.60
2019-04-05T15:29:26.629Z,6.60
2019-04-05T15:31:56.585Z,6.30
2019-04-05T15:34:28.445Z,6.70
2019-04-05T15:36:56.432Z,6.72
2019-04-05T15:39:25.731Z,6.35
2019-04-05T15:41:55.953Z,7.05
2019-04-05T15:44:25.254Z,6.65
2019-04-05T15:46:54.553Z,7.03
2019-04-05T15:49:23.856Z,6.55
2019-04-05T15:51:58.737Z,6.67
2019-04-05T15:54:29.029Z,6.10
2019-04-05T15:56:57.899Z,5.87
2019-04-05T15:59:27.203Z,6.45
2019-04-05T16:01:56.500Z,6.00
2019-04-05T16:04:25.800Z,7.22
2019-04-05T16:06:55.102Z,7.05
2019-04-05T16:09:24.181Z,10.53
2019-04-05T16:11:53.137Z,17.05
2019-04-05T16:14:23.309Z,12.75
2019-04-05T16:16:53.656Z,21.27
2019-04-05T16:19:23.139Z,23.92
2019-04-05T16:21:52.439Z,31.25
2019-04-05T16:24:21.435Z,9.15
2019-04-05T16:26:50.733Z,6.58
2019-04-05T16:29:39.080Z,6.83
2019-04-05T16:32:08.380Z,6.17
2019-04-05T16:34:37.681Z,6.22
2019-04-05T16:37:09.440Z,5.80
2019-04-05T16:39:43.348Z,5.83
2019-04-05T16:42:13.575Z,6.25
2019-04-05T16:44:42.893Z,5.65
2019-04-05T16:47:11.865Z,6.15
2019-04-05T16:49:41.165Z,5.92
2019-04-05T16:52:10.457Z,5.53
2019-04-05T16:54:39.764Z,6.20
2019-04-05T16:57:08.758Z,6.28
2019-04-05T16:59:38.062Z,5.70
2019-04-05T17:02:07.359Z,6.35
2019-04-05T17:04:36.454Z,6.55
2019-04-05T17:07:05.468Z,6.47
2019-04-05T17:09:34.648Z,6.12
2019-04-05T17:12:06.600Z,5.95
2019-04-05T17:14:46.151Z,6.45
2019-04-05T17:17:15.453Z,6.65
2019-04-05T17:19:44.763Z,6.05
2019-04-05T17:22:14.051Z,6.22
2019-04-05T17:24:43.356Z,6.92
2019-04-05T17:27:13.339Z,7.65
2019-04-05T17:29:42.566Z,6.97
2019-04-05T17:32:11.867Z,6.65
2019-04-05T17:34:41.212Z,7.12
2019-04-05T17:37:10.471Z,6.05
2019-04-05T17:39:39.563Z,6.12
2019-04-05T17:42:08.761Z,7.10
2019-04-05T17:44:38.675Z,6.55
2019-04-05T17:47:07.976Z,6.60
2019-04-05T17:49:37.071Z,6.40
2019-04-05T17:52:06.577Z,7.30
2019-04-05T17:54:35.877Z,7.10
2019-04-05T17:57:06.714Z,6.83
2019-04-05T17:59:38.217Z,7.20
2019-04-05T18:02:07.465Z,6.47
2019-04-05T18:04:38.198Z,7.12
2019-04-05T18:07:07.295Z,6.72
2019-04-05T18:09:36.595Z,7.22
2019-04-05T18:12:06.183Z,7.30
2019-04-05T18:14:35.503Z,6.75
2019-04-05T18:17:04.785Z,7.10
2019-04-05T18:19:35.332Z,6.97
2019-04-05T18:22:04.633Z,7.25
2019-04-05T18:24:34.650Z,7.45
2019-04-05T18:27:03.849Z,7.80
2019-04-05T18:29:32.943Z,8.10
2019-04-05T18:32:02.143Z,8.10
2019-04-05T18:34:33.535Z,8.45
2019-04-05T18:37:02.881Z,8.15
2019-04-05T18:39:32.195Z,7.97
2019-04-05T18:42:01.494Z,8.40
2019-04-05T18:44:30.794Z,8.38
2019-04-05T18:47:00.095Z,8.70
2019-04-05T18:49:29.396Z,8.70
2019-04-05T18:51:58.698Z,8.98
2019-04-05T18:54:28.007Z,9.70
2019-04-05T18:56:59.142Z,8.90
2019-04-05T18:59:28.443Z,9.80
2019-04-05T19:01:57.779Z,11.83
2019-04-05T19:04:34.301Z,11.35
2019-04-05T19:07:09.248Z,11.33
2019-04-05T19:09:38.339Z,12.95
2019-04-05T19:12:07.538Z,12.47
2019-04-05T19:14:36.838Z,12.40
2019-04-05T19:17:06.141Z,12.50
2019-04-05T19:19:35.233Z,11.97
2019-04-05T19:22:09.041Z,10.53
2019-04-05T19:24:38.340Z,10.30
2019-04-05T19:27:28.225Z,9.70
2019-04-05T19:29:57.524Z,11.08
2019-04-05T19:50:06.059Z,9.55
2019-04-05T19:55:03.757Z,9.60
2019-04-05T19:57:34.268Z,9.55
2019-04-05T20:00:03.593Z,10.85
2019-04-05T20:02:32.868Z,9.98
2019-04-05T20:05:02.204Z,10.03
2019-04-05T20:07:31.468Z,8.95
2019-04-05T20:10:00.770Z,8.98
2019-04-05T20:12:30.070Z,9.48
2019-04-05T20:14:59.377Z,9.90
2019-04-05T20:17:28.670Z,10.32
2019-04-05T20:19:58.586Z,10.05
2019-04-05T20:22:27.886Z,10.17
2019-04-05T20:24:57.187Z,9.63
2019-04-05T20:27:26.486Z,9.95
2019-04-05T20:29:55.786Z,10.50
2019-04-05T20:32:25.087Z,10.20
2019-04-05T20:34:55.923Z,10.23
2019-04-05T20:39:53.605Z,10.80
2019-04-05T20:42:22.903Z,10.38
2019-04-05T20:44:52.207Z,11.03
2019-04-05T20:47:22.425Z,10.82
2019-04-05T20:49:51.726Z,10.88
2019-04-05T20:52:21.026Z,10.95
2019-04-05T20:54:50.327Z,10.88
2019-04-05T20:57:19.629Z,10.65
2019-04-05T20:59:48.928Z,11.18
2019-04-05T21:02:18.229Z,10.75
2019-04-05T21:04:47.530Z,11.22
2019-04-05T21:07:19.594Z,10.80
2019-04-05T21:09:48.948Z,10.75
2019-04-05T21:12:18.197Z,11.22
2019-04-05T21:14:47.495Z,11.55
2019-04-05T21:17:16.795Z,11.57
2019-04-05T21:19:46.099Z,10.48
2019-04-05T21:22:15.397Z,12.23
2019-04-05T21:24:44.437Z,10.82
2019-04-05T21:27:13.689Z,11.03
2019-04-05T21:29:42.689Z,11.33
2019-04-05T21:32:11.983Z,11.00
2019-04-05T21:34:41.291Z,11.12
2019-04-05T21:37:10.590Z,11.45
2019-04-05T21:39:39.923Z,11.33
2019-04-05T21:42:09.191Z,10.65
2019-04-05T21:44:38.501Z,11.63
2019-04-05T21:47:09.022Z,13.90
2019-04-05T21:49:38.361Z,11.33
2019-04-05T21:52:07.621Z,10.75
2019-04-05T21:54:47.093Z,11.35
2019-04-05T21:57:08.685Z,11.53
2019-04-05T21:59:37.980Z,10.72
2019-04-05T22:02:07.284Z,11.55
2019-04-05T22:04:36.591Z,11.33
2019-04-05T22:07:05.930Z,11.43
2019-04-05T22:09:35.185Z,11.55
2019-04-05T22:12:14.754Z,11.83
2019-04-05T22:14:44.232Z,12.03
2019-04-05T22:17:13.533Z,11.48
2019-04-05T22:19:42.625Z,10.63
2019-04-05T22:22:14.592Z,11.15
2019-04-05T22:24:43.889Z,11.20
2019-04-05T22:27:13.190Z,11.18
2019-04-05T22:29:42.493Z,11.75
2019-04-05T22:32:11.810Z,11.60
2019-04-05T22:34:41.094Z,11.57
2019-04-05T22:37:10.395Z,10.90
2019-04-05T22:39:39.446Z,11.10
2019-04-05T22:42:08.477Z,11.48
2019-04-05T22:44:40.075Z,10.60
2019-04-05T22:47:08.210Z,10.93
2019-04-05T22:49:39.045Z,11.03
2019-04-05T22:54:36.730Z,10.80
2019-04-05T22:57:06.023Z,10.70
2019-04-05T22:59:35.324Z,10.78
2019-04-05T23:02:05.372Z,10.40
2019-04-05T23:04:34.540Z,10.47
2019-04-05T23:07:03.840Z,10.32
2019-04-05T23:09:33.141Z,9.70
2019-04-05T23:12:02.442Z,10.68
2019-04-05T23:14:31.741Z,11.57
2019-04-05T23:17:01.042Z,10.48
2019-04-05T23:19:30.343Z,10.20
2019-04-05T23:22:00.926Z,10.60
2019-04-05T23:24:30.172Z,10.43
2019-04-05T23:26:59.475Z,11.35
2019-04-05T23:29:28.772Z,10.95
2019-04-05T23:31:58.073Z,10.30
2019-04-05T23:34:27.375Z,11.05
2019-04-05T23:36:56.674Z,11.10
2019-04-05T23:39:25.973Z,10.00
2019-04-05T23:41:55.276Z,10.40
2019-04-05T23:44:24.574Z,10.90
2019-04-05T23:46:54.797Z,10.35
2019-04-05T23:49:24.102Z,10.18
2019-04-05T23:51:53.398Z,9.98
2019-04-05T23:54:22.698Z,10.50
2019-04-05T23:56:51.999Z,10.50
2019-04-05T23:59:21.299Z,10.43
